sensor_id;sensor_type;location;lat;lon;timestamp;P1;durP1;ratioP1;P2;durP2;ratioP2
18899;SDS011;9582;52.018;6.306;2022-12-07T00:01:43;13.33;;;10.53;;
18899;SDS011;9582;52.018;6.306;2022-12-07T00:04:13;14.37;;;11.33;;
18899;SDS011;9582;52.018;6.306;2022-12-07T00:06:41;15.43;;;10.90;;
18899;SDS011;9582;52.018;6.306;2022-12-07T00:09:10;15.23;;;10.50;;
18899;SDS011;9582;52.018;6.306;2022-12-07T00:11:40;14.37;;;10.40;;
18899;SDS011;9582;52.018;6.306;2022-12-07T00:14:07;15.13;;;10.70;;
18899;SDS011;9582;52.018;6.306;2022-12-07T00:16:37;13.93;;;10.33;;
18899;SDS011;9582;52.018;6.306;2022-12-07T00:19:03;15.87;;;11.63;;
18899;SDS011;9582;52.018;6.306;2022-12-07T00:21:30;13.03;;;10.03;;
18899;SDS011;9582;52.018;6.306;2022-12-07T00:23:58;16.23;;;10.33;;
18899;SDS011;9582;52.018;6.306;2022-12-07T00:26:27;17.30;;;10.87;;
18899;SDS011;9582;52.018;6.306;2022-12-07T00:28:58;16.00;;;10.83;;
18899;SDS011;9582;52.018;6.306;2022-12-07T00:31:27;15.57;;;10.73;;
18899;SDS011;9582;52.018;6.306;2022-12-07T00:33:55;15.80;;;10.20;;
18899;SDS011;9582;52.018;6.306;2022-12-07T00:36:23;15.57;;;10.00;;
18899;SDS011;9582;52.018;6.306;2022-12-07T00:38:50;13.20;;;9.73;;
18899;SDS011;9582;52.018;6.306;2022-12-07T00:41:18;14.20;;;9.67;;
18899;SDS011;9582;52.018;6.306;2022-12-07T00:43:46;13.20;;;9.33;;
18899;SDS011;9582;52.018;6.306;2022-12-07T00:46:15;11.93;;;8.97;;
18899;SDS011;9582;52.018;6.306;2022-12-07T00:48:42;14.00;;;9.73;;
18899;SDS011;9582;52.018;6.306;2022-12-07T00:51:09;13.97;;;9.67;;
18899;SDS011;9582;52.018;6.306;2022-12-07T00:53:37;12.70;;;8.90;;
18899;SDS011;9582;52.018;6.306;2022-12-07T00:56:05;13.10;;;9.03;;
18899;SDS011;9582;52.018;6.306;2022-12-07T00:58:32;10.30;;;7.27;;
18899;SDS011;9582;52.018;6.306;2022-12-07T01:00:59;12.30;;;8.00;;
18899;SDS011;9582;52.018;6.306;2022-12-07T01:03:28;11.83;;;8.17;;
18899;SDS011;9582;52.018;6.306;2022-12-07T01:05:55;13.13;;;8.70;;
18899;SDS011;9582;52.018;6.306;2022-12-07T01:08:22;12.93;;;8.10;;
18899;SDS011;9582;52.018;6.306;2022-12-07T01:10:57;12.30;;;6.90;;
18899;SDS011;9582;52.018;6.306;2022-12-07T01:13:24;11.67;;;6.87;;
18899;SDS011;9582;52.018;6.306;2022-12-07T01:15:50;10.60;;;6.43;;
18899;SDS011;9582;52.018;6.306;2022-12-07T01:18:17;9.43;;;6.20;;
18899;SDS011;9582;52.018;6.306;2022-12-07T01:20:45;11.30;;;6.07;;
18899;SDS011;9582;52.018;6.306;2022-12-07T01:23:23;9.40;;;6.43;;
18899;SDS011;9582;52.018;6.306;2022-12-07T01:25:53;8.40;;;5.33;;
18899;SDS011;9582;52.018;6.306;2022-12-07T01:28:20;10.00;;;5.77;;
18899;SDS011;9582;52.018;6.306;2022-12-07T01:30:54;7.90;;;5.47;;
18899;SDS011;9582;52.018;6.306;2022-12-07T01:33:21;9.80;;;5.97;;
18899;SDS011;9582;52.018;6.306;2022-12-07T01:35:49;7.70;;;5.10;;
18899;SDS011;9582;52.018;6.306;2022-12-07T01:38:15;8.60;;;5.40;;
18899;SDS011;9582;52.018;6.306;2022-12-07T01:40:42;10.07;;;6.00;;
18899;SDS011;9582;52.018;6.306;2022-12-07T01:43:11;7.23;;;5.27;;
18899;SDS011;9582;52.018;6.306;2022-12-07T01:45:42;12.10;;;5.73;;
18899;SDS011;9582;52.018;6.306;2022-12-07T01:48:09;9.67;;;5.27;;
18899;SDS011;9582;52.018;6.306;2022-12-07T01:50:39;10.73;;;5.33;;
18899;SDS011;9582;52.018;6.306;2022-12-07T01:53:09;9.00;;;5.23;;
18899;SDS011;9582;52.018;6.306;2022-12-07T01:55:38;8.93;;;5.10;;
18899;SDS011;9582;52.018;6.306;2022-12-07T01:58:08;7.70;;;5.13;;
18899;SDS011;9582;52.018;6.306;2022-12-07T02:00:36;10.80;;;5.20;;
18899;SDS011;9582;52.018;6.306;2022-12-07T02:03:04;7.83;;;5.47;;
18899;SDS011;9582;52.018;6.306;2022-12-07T02:05:35;10.27;;;6.07;;
18899;SDS011;9582;52.018;6.306;2022-12-07T02:08:04;10.40;;;6.27;;
18899;SDS011;9582;52.018;6.306;2022-12-07T02:10:32;10.63;;;6.30;;
18899;SDS011;9582;52.018;6.306;2022-12-07T02:13:00;11.60;;;5.50;;
18899;SDS011;9582;52.018;6.306;2022-12-07T02:15:32;11.43;;;5.63;;
18899;SDS011;9582;52.018;6.306;2022-12-07T02:18:09;9.83;;;6.20;;
18899;SDS011;9582;52.018;6.306;2022-12-07T02:20:42;10.43;;;6.17;;
18899;SDS011;9582;52.018;6.306;2022-12-07T02:26:41;10.57;;;5.83;;
18899;SDS011;9582;52.018;6.306;2022-12-07T02:29:20;9.77;;;5.73;;
18899;SDS011;9582;52.018;6.306;2022-12-07T02:31:51;9.30;;;5.53;;
18899;SDS011;9582;52.018;6.306;2022-12-07T02:34:28;13.80;;;6.40;;
18899;SDS011;9582;52.018;6.306;2022-12-07T02:37:03;8.90;;;5.90;;
18899;SDS011;9582;52.018;6.306;2022-12-07T02:39:37;8.73;;;5.63;;
18899;SDS011;9582;52.018;6.306;2022-12-07T02:42:09;9.37;;;6.00;;
18899;SDS011;9582;52.018;6.306;2022-12-07T02:44:42;10.17;;;5.67;;
18899;SDS011;9582;52.018;6.306;2022-12-07T02:47:10;10.63;;;6.27;;
18899;SDS011;9582;52.018;6.306;2022-12-07T02:49:42;11.73;;;5.80;;
18899;SDS011;9582;52.018;6.306;2022-12-07T02:52:09;10.17;;;5.87;;
18899;SDS011;9582;52.018;6.306;2022-12-07T02:54:36;11.37;;;5.20;;
18899;SDS011;9582;52.018;6.306;2022-12-07T02:57:05;11.53;;;6.10;;
18899;SDS011;9582;52.018;6.306;2022-12-07T02:59:46;10.63;;;5.30;;
18899;SDS011;9582;52.018;6.306;2022-12-07T03:02:24;9.67;;;6.07;;
18899;SDS011;9582;52.018;6.306;2022-12-07T03:04:59;12.87;;;6.13;;
18899;SDS011;9582;52.018;6.306;2022-12-07T03:07:39;10.30;;;6.00;;
18899;SDS011;9582;52.018;6.306;2022-12-07T03:10:16;12.63;;;5.90;;
18899;SDS011;9582;52.018;6.306;2022-12-07T03:12:52;9.07;;;5.77;;
18899;SDS011;9582;52.018;6.306;2022-12-07T03:15:31;11.33;;;5.97;;
18899;SDS011;9582;52.018;6.306;2022-12-07T03:17:59;11.80;;;6.10;;
18899;SDS011;9582;52.018;6.306;2022-12-07T03:20:30;11.00;;;5.70;;
18899;SDS011;9582;52.018;6.306;2022-12-07T03:23:01;11.63;;;6.20;;
18899;SDS011;9582;52.018;6.306;2022-12-07T03:25:32;9.67;;;6.10;;
18899;SDS011;9582;52.018;6.306;2022-12-07T03:28:02;9.37;;;5.67;;
18899;SDS011;9582;52.018;6.306;2022-12-07T03:30:34;10.47;;;6.03;;
18899;SDS011;9582;52.018;6.306;2022-12-07T03:33:06;11.57;;;5.70;;
18899;SDS011;9582;52.018;6.306;2022-12-07T03:35:38;10.97;;;5.97;;
18899;SDS011;9582;52.018;6.306;2022-12-07T03:38:10;14.07;;;6.37;;
18899;SDS011;9582;52.018;6.306;2022-12-07T03:40:43;13.23;;;6.17;;
18899;SDS011;9582;52.018;6.306;2022-12-07T03:43:14;11.27;;;6.30;;
18899;SDS011;9582;52.018;6.306;2022-12-07T03:45:45;14.67;;;5.73;;
18899;SDS011;9582;52.018;6.306;2022-12-07T03:48:26;11.77;;;5.67;;
18899;SDS011;9582;52.018;6.306;2022-12-07T03:51:00;10.90;;;6.57;;
18899;SDS011;9582;52.018;6.306;2022-12-07T03:53:34;14.80;;;6.30;;
18899;SDS011;9582;52.018;6.306;2022-12-07T03:56:06;8.97;;;6.00;;
18899;SDS011;9582;52.018;6.306;2022-12-07T03:58:34;9.73;;;5.70;;
18899;SDS011;9582;52.018;6.306;2022-12-07T04:01:02;8.20;;;5.20;;
18899;SDS011;9582;52.018;6.306;2022-12-07T04:03:29;7.87;;;4.80;;
18899;SDS011;9582;52.018;6.306;2022-12-07T04:05:55;10.50;;;5.90;;
18899;SDS011;9582;52.018;6.306;2022-12-07T04:08:23;9.40;;;5.00;;
18899;SDS011;9582;52.018;6.306;2022-12-07T04:10:49;9.37;;;4.90;;
18899;SDS011;9582;52.018;6.306;2022-12-07T04:13:16;7.97;;;4.40;;
18899;SDS011;9582;52.018;6.306;2022-12-07T04:15:43;9.33;;;4.77;;
18899;SDS011;9582;52.018;6.306;2022-12-07T04:18:11;8.20;;;5.00;;
18899;SDS011;9582;52.018;6.306;2022-12-07T04:20:37;8.90;;;4.90;;
18899;SDS011;9582;52.018;6.306;2022-12-07T04:23:04;11.33;;;5.60;;
18899;SDS011;9582;52.018;6.306;2022-12-07T04:25:30;15.13;;;5.33;;
18899;SDS011;9582;52.018;6.306;2022-12-07T04:27:57;10.90;;;5.40;;
18899;SDS011;9582;52.018;6.306;2022-12-07T04:30:24;8.93;;;4.73;;
18899;SDS011;9582;52.018;6.306;2022-12-07T04:32:50;8.57;;;5.10;;
18899;SDS011;9582;52.018;6.306;2022-12-07T04:35:18;8.13;;;4.57;;
18899;SDS011;9582;52.018;6.306;2022-12-07T04:37:45;11.83;;;5.20;;
18899;SDS011;9582;52.018;6.306;2022-12-07T04:40:11;12.10;;;5.13;;
18899;SDS011;9582;52.018;6.306;2022-12-07T04:42:39;9.47;;;5.63;;
18899;SDS011;9582;52.018;6.306;2022-12-07T04:45:06;14.50;;;6.13;;
18899;SDS011;9582;52.018;6.306;2022-12-07T04:47:33;9.80;;;6.07;;
18899;SDS011;9582;52.018;6.306;2022-12-07T04:50:00;7.83;;;5.53;;
18899;SDS011;9582;52.018;6.306;2022-12-07T04:52:28;12.40;;;5.73;;
18899;SDS011;9582;52.018;6.306;2022-12-07T04:54:54;14.13;;;6.60;;
18899;SDS011;9582;52.018;6.306;2022-12-07T04:57:21;11.00;;;5.63;;
18899;SDS011;9582;52.018;6.306;2022-12-07T04:59:47;9.70;;;5.93;;
18899;SDS011;9582;52.018;6.306;2022-12-07T05:02:14;11.90;;;6.97;;
18899;SDS011;9582;52.018;6.306;2022-12-07T05:04:40;14.97;;;6.37;;
18899;SDS011;9582;52.018;6.306;2022-12-07T05:07:07;12.03;;;5.97;;
18899;SDS011;9582;52.018;6.306;2022-12-07T05:09:35;12.07;;;6.63;;
18899;SDS011;9582;52.018;6.306;2022-12-07T05:12:01;13.33;;;6.17;;
18899;SDS011;9582;52.018;6.306;2022-12-07T05:14:28;9.97;;;5.67;;
18899;SDS011;9582;52.018;6.306;2022-12-07T05:16:54;10.27;;;6.30;;
18899;SDS011;9582;52.018;6.306;2022-12-07T05:19:21;11.30;;;6.37;;
18899;SDS011;9582;52.018;6.306;2022-12-07T05:21:47;10.57;;;6.10;;
18899;SDS011;9582;52.018;6.306;2022-12-07T05:24:14;10.60;;;6.97;;
18899;SDS011;9582;52.018;6.306;2022-12-07T05:26:43;12.27;;;6.67;;
18899;SDS011;9582;52.018;6.306;2022-12-07T05:29:11;12.53;;;6.67;;
18899;SDS011;9582;52.018;6.306;2022-12-07T05:31:38;11.73;;;6.27;;
18899;SDS011;9582;52.018;6.306;2022-12-07T05:34:05;13.50;;;6.40;;
18899;SDS011;9582;52.018;6.306;2022-12-07T05:36:31;14.70;;;6.97;;
18899;SDS011;9582;52.018;6.306;2022-12-07T05:38:58;12.87;;;6.53;;
18899;SDS011;9582;52.018;6.306;2022-12-07T05:41:24;12.53;;;6.47;;
18899;SDS011;9582;52.018;6.306;2022-12-07T05:44:10;12.00;;;6.80;;
18899;SDS011;9582;52.018;6.306;2022-12-07T05:46:37;15.00;;;6.73;;
18899;SDS011;9582;52.018;6.306;2022-12-07T05:49:03;12.33;;;6.33;;
18899;SDS011;9582;52.018;6.306;2022-12-07T05:51:30;11.33;;;6.63;;
18899;SDS011;9582;52.018;6.306;2022-12-07T05:53:56;11.33;;;6.40;;
18899;SDS011;9582;52.018;6.306;2022-12-07T05:56:23;14.93;;;6.47;;
18899;SDS011;9582;52.018;6.306;2022-12-07T05:58:49;10.50;;;5.80;;
18899;SDS011;9582;52.018;6.306;2022-12-07T06:01:35;12.80;;;6.77;;
18899;SDS011;9582;52.018;6.306;2022-12-07T06:04:01;14.10;;;6.77;;
18899;SDS011;9582;52.018;6.306;2022-12-07T06:06:28;13.43;;;7.07;;
18899;SDS011;9582;52.018;6.306;2022-12-07T06:08:54;15.73;;;7.13;;
18899;SDS011;9582;52.018;6.306;2022-12-07T06:11:21;9.10;;;5.60;;
18899;SDS011;9582;52.018;6.306;2022-12-07T06:14:05;13.77;;;5.97;;
18899;SDS011;9582;52.018;6.306;2022-12-07T06:16:31;9.07;;;6.23;;
18899;SDS011;9582;52.018;6.306;2022-12-07T06:18:59;9.90;;;5.80;;
18899;SDS011;9582;52.018;6.306;2022-12-07T06:21:26;11.17;;;5.97;;
18899;SDS011;9582;52.018;6.306;2022-12-07T06:23:52;10.83;;;5.30;;
18899;SDS011;9582;52.018;6.306;2022-12-07T06:26:19;8.37;;;4.80;;
18899;SDS011;9582;52.018;6.306;2022-12-07T06:28:45;10.53;;;5.70;;
18899;SDS011;9582;52.018;6.306;2022-12-07T06:31:12;12.07;;;6.27;;
18899;SDS011;9582;52.018;6.306;2022-12-07T06:33:38;10.70;;;6.10;;
18899;SDS011;9582;52.018;6.306;2022-12-07T06:36:06;14.03;;;5.70;;
18899;SDS011;9582;52.018;6.306;2022-12-07T06:38:33;9.63;;;5.67;;
18899;SDS011;9582;52.018;6.306;2022-12-07T06:41:00;8.87;;;5.10;;
18899;SDS011;9582;52.018;6.306;2022-12-07T06:43:26;10.60;;;5.67;;
18899;SDS011;9582;52.018;6.306;2022-12-07T06:45:53;9.57;;;4.80;;
18899;SDS011;9582;52.018;6.306;2022-12-07T06:48:20;11.03;;;4.60;;
18899;SDS011;9582;52.018;6.306;2022-12-07T06:50:47;11.97;;;5.17;;
18899;SDS011;9582;52.018;6.306;2022-12-07T06:53:15;12.73;;;5.30;;
18899;SDS011;9582;52.018;6.306;2022-12-07T06:55:42;11.37;;;5.00;;
18899;SDS011;9582;52.018;6.306;2022-12-07T06:58:08;11.30;;;5.13;;
18899;SDS011;9582;52.018;6.306;2022-12-07T07:00:35;7.93;;;5.40;;
18899;SDS011;9582;52.018;6.306;2022-12-07T07:03:01;7.60;;;5.53;;
18899;SDS011;9582;52.018;6.306;2022-12-07T07:05:28;11.83;;;5.40;;
18899;SDS011;9582;52.018;6.306;2022-12-07T07:07:54;11.47;;;5.60;;
18899;SDS011;9582;52.018;6.306;2022-12-07T07:10:22;8.03;;;4.90;;
18899;SDS011;9582;52.018;6.306;2022-12-07T07:12:49;17.67;;;5.03;;
18899;SDS011;9582;52.018;6.306;2022-12-07T07:15:15;11.27;;;5.80;;
18899;SDS011;9582;52.018;6.306;2022-12-07T07:17:42;9.90;;;4.90;;
18899;SDS011;9582;52.018;6.306;2022-12-07T07:20:09;11.57;;;5.67;;
18899;SDS011;9582;52.018;6.306;2022-12-07T07:22:36;8.83;;;4.60;;
18899;SDS011;9582;52.018;6.306;2022-12-07T07:25:03;10.60;;;4.77;;
18899;SDS011;9582;52.018;6.306;2022-12-07T07:27:31;7.83;;;4.40;;
18899;SDS011;9582;52.018;6.306;2022-12-07T07:29:57;10.30;;;4.50;;
18899;SDS011;9582;52.018;6.306;2022-12-07T07:32:24;7.80;;;4.40;;
18899;SDS011;9582;52.018;6.306;2022-12-07T07:34:51;15.77;;;4.63;;
18899;SDS011;9582;52.018;6.306;2022-12-07T07:37:17;6.73;;;4.53;;
18899;SDS011;9582;52.018;6.306;2022-12-07T07:39:44;9.07;;;4.67;;
18899;SDS011;9582;52.018;6.306;2022-12-07T07:42:10;9.27;;;4.37;;
18899;SDS011;9582;52.018;6.306;2022-12-07T07:44:38;7.73;;;4.60;;
18899;SDS011;9582;52.018;6.306;2022-12-07T07:47:05;9.63;;;4.40;;
18899;SDS011;9582;52.018;6.306;2022-12-07T07:49:32;10.20;;;5.00;;
18899;SDS011;9582;52.018;6.306;2022-12-07T07:51:58;12.23;;;4.60;;
18899;SDS011;9582;52.018;6.306;2022-12-07T07:54:25;8.90;;;4.47;;
18899;SDS011;9582;52.018;6.306;2022-12-07T07:56:51;12.90;;;4.50;;
18899;SDS011;9582;52.018;6.306;2022-12-07T07:59:18;9.33;;;4.40;;
18899;SDS011;9582;52.018;6.306;2022-12-07T08:01:46;11.50;;;4.80;;
18899;SDS011;9582;52.018;6.306;2022-12-07T08:04:13;11.23;;;4.90;;
18899;SDS011;9582;52.018;6.306;2022-12-07T08:06:39;11.50;;;4.57;;
18899;SDS011;9582;52.018;6.306;2022-12-07T08:09:07;9.77;;;4.57;;
18899;SDS011;9582;52.018;6.306;2022-12-07T08:11:33;7.93;;;5.00;;
18899;SDS011;9582;52.018;6.306;2022-12-07T08:14:01;8.30;;;3.83;;
18899;SDS011;9582;52.018;6.306;2022-12-07T08:16:27;13.00;;;4.90;;
18899;SDS011;9582;52.018;6.306;2022-12-07T08:18:55;10.50;;;4.37;;
18899;SDS011;9582;52.018;6.306;2022-12-07T08:21:22;9.47;;;4.57;;
18899;SDS011;9582;52.018;6.306;2022-12-07T08:23:49;8.30;;;4.20;;
18899;SDS011;9582;52.018;6.306;2022-12-07T08:26:15;7.00;;;3.83;;
18899;SDS011;9582;52.018;6.306;2022-12-07T08:28:42;9.03;;;3.80;;
18899;SDS011;9582;52.018;6.306;2022-12-07T08:31:10;7.77;;;3.67;;
18899;SDS011;9582;52.018;6.306;2022-12-07T08:33:39;6.50;;;3.73;;
18899;SDS011;9582;52.018;6.306;2022-12-07T08:36:09;7.80;;;3.53;;
18899;SDS011;9582;52.018;6.306;2022-12-07T08:38:37;9.33;;;3.70;;
18899;SDS011;9582;52.018;6.306;2022-12-07T08:41:05;5.97;;;3.47;;
18899;SDS011;9582;52.018;6.306;2022-12-07T08:43:32;9.57;;;3.40;;
18899;SDS011;9582;52.018;6.306;2022-12-07T08:46:02;6.33;;;3.20;;
18899;SDS011;9582;52.018;6.306;2022-12-07T08:48:33;8.70;;;3.87;;
18899;SDS011;9582;52.018;6.306;2022-12-07T08:51:02;7.80;;;3.27;;
18899;SDS011;9582;52.018;6.306;2022-12-07T08:53:30;10.90;;;3.47;;
18899;SDS011;9582;52.018;6.306;2022-12-07T08:55:58;7.00;;;2.80;;
18899;SDS011;9582;52.018;6.306;2022-12-07T08:58:25;6.90;;;2.80;;
18899;SDS011;9582;52.018;6.306;2022-12-07T09:00:51;10.40;;;3.43;;
18899;SDS011;9582;52.018;6.306;2022-12-07T09:03:18;5.20;;;2.27;;
18899;SDS011;9582;52.018;6.306;2022-12-07T09:05:44;4.90;;;2.50;;
18899;SDS011;9582;52.018;6.306;2022-12-07T09:08:11;9.77;;;2.70;;
18899;SDS011;9582;52.018;6.306;2022-12-07T09:10:39;6.77;;;2.37;;
18899;SDS011;9582;52.018;6.306;2022-12-07T09:13:06;7.93;;;2.63;;
18899;SDS011;9582;52.018;6.306;2022-12-07T09:15:32;5.90;;;2.20;;
18899;SDS011;9582;52.018;6.306;2022-12-07T09:17:59;8.00;;;2.80;;
18899;SDS011;9582;52.018;6.306;2022-12-07T09:20:25;7.93;;;2.70;;
18899;SDS011;9582;52.018;6.306;2022-12-07T09:22:52;7.93;;;2.37;;
18899;SDS011;9582;52.018;6.306;2022-12-07T09:25:18;6.63;;;2.30;;
18899;SDS011;9582;52.018;6.306;2022-12-07T09:27:46;5.03;;;2.50;;
18899;SDS011;9582;52.018;6.306;2022-12-07T09:30:13;6.97;;;2.20;;
18899;SDS011;9582;52.018;6.306;2022-12-07T09:32:39;3.67;;;1.90;;
18899;SDS011;9582;52.018;6.306;2022-12-07T09:35:07;7.53;;;2.60;;
18899;SDS011;9582;52.018;6.306;2022-12-07T09:37:34;6.67;;;2.33;;
18899;SDS011;9582;52.018;6.306;2022-12-07T09:40:01;7.37;;;2.17;;
18899;SDS011;9582;52.018;6.306;2022-12-07T09:42:29;8.40;;;1.80;;
18899;SDS011;9582;52.018;6.306;2022-12-07T09:45:01;4.77;;;2.13;;
18899;SDS011;9582;52.018;6.306;2022-12-07T09:47:30;3.13;;;1.90;;
18899;SDS011;9582;52.018;6.306;2022-12-07T09:50:00;4.63;;;2.00;;
18899;SDS011;9582;52.018;6.306;2022-12-07T09:52:31;3.63;;;2.20;;
18899;SDS011;9582;52.018;6.306;2022-12-07T09:54:58;5.10;;;1.73;;
18899;SDS011;9582;52.018;6.306;2022-12-07T09:57:26;5.83;;;1.90;;
18899;SDS011;9582;52.018;6.306;2022-12-07T09:59:55;4.37;;;1.90;;
18899;SDS011;9582;52.018;6.306;2022-12-07T10:02:33;5.13;;;2.37;;
18899;SDS011;9582;52.018;6.306;2022-12-07T10:05:03;4.87;;;1.63;;
18899;SDS011;9582;52.018;6.306;2022-12-07T10:07:31;6.47;;;2.10;;
18899;SDS011;9582;52.018;6.306;2022-12-07T10:09:57;4.33;;;1.67;;
18899;SDS011;9582;52.018;6.306;2022-12-07T10:12:24;5.40;;;1.23;;
18899;SDS011;9582;52.018;6.306;2022-12-07T10:14:54;4.53;;;1.50;;
18899;SDS011;9582;52.018;6.306;2022-12-07T10:17:31;3.43;;;1.30;;
18899;SDS011;9582;52.018;6.306;2022-12-07T10:20:17;4.60;;;1.53;;
18899;SDS011;9582;52.018;6.306;2022-12-07T10:23:00;3.97;;;1.57;;
18899;SDS011;9582;52.018;6.306;2022-12-07T10:25:29;5.20;;;1.50;;
18899;SDS011;9582;52.018;6.306;2022-12-07T10:27:58;5.00;;;1.50;;
18899;SDS011;9582;52.018;6.306;2022-12-07T10:30:26;5.77;;;1.50;;
18899;SDS011;9582;52.018;6.306;2022-12-07T10:32:57;3.50;;;1.40;;
18899;SDS011;9582;52.018;6.306;2022-12-07T10:35:24;7.07;;;1.80;;
18899;SDS011;9582;52.018;6.306;2022-12-07T10:37:53;4.87;;;1.60;;
18899;SDS011;9582;52.018;6.306;2022-12-07T10:40:31;4.80;;;1.97;;
18899;SDS011;9582;52.018;6.306;2022-12-07T10:43:03;4.97;;;1.93;;
18899;SDS011;9582;52.018;6.306;2022-12-07T10:45:32;4.33;;;1.90;;
18899;SDS011;9582;52.018;6.306;2022-12-07T10:48:04;4.90;;;1.63;;
18899;SDS011;9582;52.018;6.306;2022-12-07T10:50:41;5.97;;;1.50;;
18899;SDS011;9582;52.018;6.306;2022-12-07T10:53:21;4.03;;;1.53;;
18899;SDS011;9582;52.018;6.306;2022-12-07T10:59:03;6.30;;;1.80;;
18899;SDS011;9582;52.018;6.306;2022-12-07T11:01:48;4.83;;;1.80;;
18899;SDS011;9582;52.018;6.306;2022-12-07T11:04:33;7.03;;;2.00;;
18899;SDS011;9582;52.018;6.306;2022-12-07T11:07:10;7.93;;;2.60;;
18899;SDS011;9582;52.018;6.306;2022-12-07T11:09:49;7.30;;;2.10;;
18899;SDS011;9582;52.018;6.306;2022-12-07T11:12:26;4.77;;;2.30;;
18899;SDS011;9582;52.018;6.306;2022-12-07T11:15:10;7.40;;;3.33;;
18899;SDS011;9582;52.018;6.306;2022-12-07T11:17:43;5.70;;;2.10;;
18899;SDS011;9582;52.018;6.306;2022-12-07T11:20:23;6.03;;;2.40;;
18899;SDS011;9582;52.018;6.306;2022-12-07T11:23:00;5.40;;;1.93;;
18899;SDS011;9582;52.018;6.306;2022-12-07T11:25:37;6.13;;;2.07;;
18899;SDS011;9582;52.018;6.306;2022-12-07T11:28:17;6.27;;;2.07;;
18899;SDS011;9582;52.018;6.306;2022-12-07T11:30:57;5.93;;;2.10;;
18899;SDS011;9582;52.018;6.306;2022-12-07T11:33:33;6.27;;;2.27;;
18899;SDS011;9582;52.018;6.306;2022-12-07T11:36:10;6.70;;;2.60;;
18899;SDS011;9582;52.018;6.306;2022-12-07T11:38:53;7.93;;;2.70;;
18899;SDS011;9582;52.018;6.306;2022-12-07T11:41:22;7.53;;;2.70;;
18899;SDS011;9582;52.018;6.306;2022-12-07T11:43:54;6.70;;;2.50;;
18899;SDS011;9582;52.018;6.306;2022-12-07T11:46:23;3.43;;;1.90;;
18899;SDS011;9582;52.018;6.306;2022-12-07T11:48:53;9.93;;;2.20;;
18899;SDS011;9582;52.018;6.306;2022-12-07T11:51:26;9.53;;;2.40;;
18899;SDS011;9582;52.018;6.306;2022-12-07T11:53:57;7.80;;;1.57;;
18899;SDS011;9582;52.018;6.306;2022-12-07T11:56:28;4.27;;;1.60;;
18899;SDS011;9582;52.018;6.306;2022-12-07T11:58:57;6.17;;;1.60;;
18899;SDS011;9582;52.018;6.306;2022-12-07T12:01:33;10.47;;;2.20;;
18899;SDS011;9582;52.018;6.306;2022-12-07T12:04:13;9.13;;;2.53;;
18899;SDS011;9582;52.018;6.306;2022-12-07T12:06:52;6.73;;;2.50;;
18899;SDS011;9582;52.018;6.306;2022-12-07T12:09:21;6.30;;;2.33;;
18899;SDS011;9582;52.018;6.306;2022-12-07T12:12:07;4.53;;;2.60;;
18899;SDS011;9582;52.018;6.306;2022-12-07T12:14:48;6.73;;;2.57;;
18899;SDS011;9582;52.018;6.306;2022-12-07T12:17:30;4.87;;;2.37;;
18899;SDS011;9582;52.018;6.306;2022-12-07T12:20:14;7.10;;;2.33;;
18899;SDS011;9582;52.018;6.306;2022-12-07T12:22:49;6.73;;;2.27;;
18899;SDS011;9582;52.018;6.306;2022-12-07T12:25:20;4.87;;;1.77;;
18899;SDS011;9582;52.018;6.306;2022-12-07T12:27:49;6.60;;;1.77;;
18899;SDS011;9582;52.018;6.306;2022-12-07T12:30:25;5.10;;;1.60;;
18899;SDS011;9582;52.018;6.306;2022-12-07T12:33:01;3.80;;;1.60;;
18899;SDS011;9582;52.018;6.306;2022-12-07T12:35:31;4.53;;;1.90;;
18899;SDS011;9582;52.018;6.306;2022-12-07T12:40:58;6.33;;;1.57;;
18899;SDS011;9582;52.018;6.306;2022-12-07T12:43:48;3.50;;;1.57;;
18899;SDS011;9582;52.018;6.306;2022-12-07T12:55:17;4.13;;;1.23;;
18899;SDS011;9582;52.018;6.306;2022-12-07T12:57:47;5.10;;;1.20;;
18899;SDS011;9582;52.018;6.306;2022-12-07T13:00:34;4.27;;;1.23;;
18899;SDS011;9582;52.018;6.306;2022-12-07T13:03:01;2.70;;;1.10;;
18899;SDS011;9582;52.018;6.306;2022-12-07T13:05:28;5.87;;;1.10;;
18899;SDS011;9582;52.018;6.306;2022-12-07T13:07:58;8.07;;;1.50;;
18899;SDS011;9582;52.018;6.306;2022-12-07T13:10:33;3.80;;;1.30;;
18899;SDS011;9582;52.018;6.306;2022-12-07T13:13:04;3.50;;;1.20;;
18899;SDS011;9582;52.018;6.306;2022-12-07T13:15:51;4.40;;;1.13;;
18899;SDS011;9582;52.018;6.306;2022-12-07T13:18:23;6.33;;;1.07;;
18899;SDS011;9582;52.018;6.306;2022-12-07T13:20:52;6.00;;;1.27;;
18899;SDS011;9582;52.018;6.306;2022-12-07T13:23:24;4.77;;;1.40;;
18899;SDS011;9582;52.018;6.306;2022-12-07T13:26:17;5.20;;;1.50;;
18899;SDS011;9582;52.018;6.306;2022-12-07T13:28:46;6.87;;;1.30;;
18899;SDS011;9582;52.018;6.306;2022-12-07T13:31:18;4.13;;;1.20;;
18899;SDS011;9582;52.018;6.306;2022-12-07T13:33:49;3.97;;;1.00;;
18899;SDS011;9582;52.018;6.306;2022-12-07T13:36:20;6.70;;;1.30;;
18899;SDS011;9582;52.018;6.306;2022-12-07T13:38:49;5.13;;;1.43;;
18899;SDS011;9582;52.018;6.306;2022-12-07T13:41:19;4.17;;;1.30;;
18899;SDS011;9582;52.018;6.306;2022-12-07T13:43:48;7.97;;;1.20;;
18899;SDS011;9582;52.018;6.306;2022-12-07T13:46:17;7.87;;;1.47;;
18899;SDS011;9582;52.018;6.306;2022-12-07T13:48:48;7.10;;;1.43;;
18899;SDS011;9582;52.018;6.306;2022-12-07T13:51:17;5.37;;;1.17;;
18899;SDS011;9582;52.018;6.306;2022-12-07T13:53:46;7.10;;;1.40;;
18899;SDS011;9582;52.018;6.306;2022-12-07T13:56:13;2.40;;;1.03;;
18899;SDS011;9582;52.018;6.306;2022-12-07T13:58:42;6.17;;;1.30;;
18899;SDS011;9582;52.018;6.306;2022-12-07T14:01:09;4.67;;;1.30;;
18899;SDS011;9582;52.018;6.306;2022-12-07T14:03:38;3.30;;;1.40;;
18899;SDS011;9582;52.018;6.306;2022-12-07T14:06:15;7.77;;;2.03;;
18899;SDS011;9582;52.018;6.306;2022-12-07T14:08:50;6.87;;;2.03;;
18899;SDS011;9582;52.018;6.306;2022-12-07T14:11:17;6.63;;;2.00;;
18899;SDS011;9582;52.018;6.306;2022-12-07T14:13:57;6.93;;;1.53;;
18899;SDS011;9582;52.018;6.306;2022-12-07T14:16:27;5.47;;;2.13;;
18899;SDS011;9582;52.018;6.306;2022-12-07T14:18:56;6.37;;;1.63;;
18899;SDS011;9582;52.018;6.306;2022-12-07T14:21:24;3.67;;;1.30;;
18899;SDS011;9582;52.018;6.306;2022-12-07T14:24:09;8.73;;;1.50;;
18899;SDS011;9582;52.018;6.306;2022-12-07T14:26:38;7.80;;;1.70;;
18899;SDS011;9582;52.018;6.306;2022-12-07T14:29:29;4.90;;;1.33;;
18899;SDS011;9582;52.018;6.306;2022-12-07T14:31:59;3.47;;;1.50;;
18899;SDS011;9582;52.018;6.306;2022-12-07T14:34:52;5.87;;;1.40;;
18899;SDS011;9582;52.018;6.306;2022-12-07T14:37:19;4.43;;;1.40;;
18899;SDS011;9582;52.018;6.306;2022-12-07T14:39:46;4.37;;;1.73;;
18899;SDS011;9582;52.018;6.306;2022-12-07T14:42:12;8.13;;;2.17;;
18899;SDS011;9582;52.018;6.306;2022-12-07T14:44:40;6.97;;;2.57;;
18899;SDS011;9582;52.018;6.306;2022-12-07T14:47:08;6.87;;;2.50;;
18899;SDS011;9582;52.018;6.306;2022-12-07T14:49:35;6.63;;;2.70;;
18899;SDS011;9582;52.018;6.306;2022-12-07T14:52:02;7.47;;;3.50;;
18899;SDS011;9582;52.018;6.306;2022-12-07T14:54:31;5.63;;;2.93;;
18899;SDS011;9582;52.018;6.306;2022-12-07T14:56:58;7.83;;;2.90;;
18899;SDS011;9582;52.018;6.306;2022-12-07T14:59:25;7.40;;;2.73;;
18899;SDS011;9582;52.018;6.306;2022-12-07T15:01:53;6.83;;;1.70;;
18899;SDS011;9582;52.018;6.306;2022-12-07T15:04:19;4.07;;;1.50;;
18899;SDS011;9582;52.018;6.306;2022-12-07T15:06:54;4.77;;;1.53;;
18899;SDS011;9582;52.018;6.306;2022-12-07T15:09:21;2.80;;;1.20;;
18899;SDS011;9582;52.018;6.306;2022-12-07T15:11:47;2.40;;;1.20;;
18899;SDS011;9582;52.018;6.306;2022-12-07T15:14:14;3.33;;;1.50;;
18899;SDS011;9582;52.018;6.306;2022-12-07T15:16:41;6.97;;;1.20;;
18899;SDS011;9582;52.018;6.306;2022-12-07T15:19:11;1.80;;;0.87;;
18899;SDS011;9582;52.018;6.306;2022-12-07T15:21:40;5.47;;;1.43;;
18899;SDS011;9582;52.018;6.306;2022-12-07T15:24:08;5.53;;;1.23;;
18899;SDS011;9582;52.018;6.306;2022-12-07T15:26:35;4.33;;;1.37;;
18899;SDS011;9582;52.018;6.306;2022-12-07T15:29:02;6.63;;;2.10;;
18899;SDS011;9582;52.018;6.306;2022-12-07T15:31:29;2.87;;;1.10;;